sensor_id;sensor_type;location;lat;lon;timestamp;P1;durP1;ratioP1;P2;durP2;ratioP2
19653;SDS011;9975;48.046;7.804;2023-04-05T01:56:51;4.70;;;3.45;;
19653;SDS011;9975;48.046;7.804;2023-04-05T01:59:16;5.30;;;3.37;;
19653;SDS011;9975;48.046;7.804;2023-04-05T02:01:42;7.63;;;3.00;;
19653;SDS011;9975;48.046;7.804;2023-04-05T02:04:07;9.20;;;4.43;;
19653;SDS011;9975;48.046;7.804;2023-04-05T02:06:33;4.13;;;3.10;;
19653;SDS011;9975;48.046;7.804;2023-04-05T02:08:59;4.93;;;3.10;;
19653;SDS011;9975;48.046;7.804;2023-04-05T02:11:25;6.18;;;3.00;;
19653;SDS011;9975;48.046;7.804;2023-04-05T02:13:51;4.80;;;3.43;;
19653;SDS011;9975;48.046;7.804;2023-04-05T02:16:16;3.40;;;2.70;;
19653;SDS011;9975;48.046;7.804;2023-04-05T02:18:42;3.47;;;3.17;;
19653;SDS011;9975;48.046;7.804;2023-04-05T02:21:14;4.15;;;2.70;;
19653;SDS011;9975;48.046;7.804;2023-04-05T02:23:40;5.37;;;2.93;;
19653;SDS011;9975;48.046;7.804;2023-04-05T02:26:06;3.33;;;2.83;;
19653;SDS011;9975;48.046;7.804;2023-04-05T02:28:32;4.47;;;3.27;;
19653;SDS011;9975;48.046;7.804;2023-04-05T02:30:58;6.93;;;3.35;;
19653;SDS011;9975;48.046;7.804;2023-04-05T02:33:24;4.20;;;3.80;;
19653;SDS011;9975;48.046;7.804;2023-04-05T02:35:50;7.53;;;3.57;;
19653;SDS011;9975;48.046;7.804;2023-04-05T02:38:17;5.15;;;3.08;;
19653;SDS011;9975;48.046;7.804;2023-04-05T02:40:45;4.13;;;2.83;;
19653;SDS011;9975;48.046;7.804;2023-04-05T02:43:12;7.90;;;3.80;;
19653;SDS011;9975;48.046;7.804;2023-04-05T02:45:38;5.40;;;3.53;;
19653;SDS011;9975;48.046;7.804;2023-04-05T02:48:03;4.87;;;4.20;;
19653;SDS011;9975;48.046;7.804;2023-04-05T02:50:29;5.37;;;4.40;;
19653;SDS011;9975;48.046;7.804;2023-04-05T02:52:55;4.17;;;3.10;;
19653;SDS011;9975;48.046;7.804;2023-04-05T02:55:20;5.00;;;3.70;;
19653;SDS011;9975;48.046;7.804;2023-04-05T02:57:46;7.63;;;4.17;;
19653;SDS011;9975;48.046;7.804;2023-04-05T03:00:12;8.50;;;4.53;;
19653;SDS011;9975;48.046;7.804;2023-04-05T03:02:38;7.63;;;4.68;;
19653;SDS011;9975;48.046;7.804;2023-04-05T03:05:04;8.10;;;4.13;;
19653;SDS011;9975;48.046;7.804;2023-04-05T03:07:30;5.50;;;3.83;;
19653;SDS011;9975;48.046;7.804;2023-04-05T03:09:57;4.28;;;3.88;;
19653;SDS011;9975;48.046;7.804;2023-04-05T03:12:23;8.20;;;5.00;;
19653;SDS011;9975;48.046;7.804;2023-04-05T03:14:49;4.77;;;3.93;;
19653;SDS011;9975;48.046;7.804;2023-04-05T03:17:15;6.53;;;4.27;;
19653;SDS011;9975;48.046;7.804;2023-04-05T03:19:40;6.03;;;4.93;;
19653;SDS011;9975;48.046;7.804;2023-04-05T03:22:06;5.73;;;4.27;;
19653;SDS011;9975;48.046;7.804;2023-04-05T03:24:32;5.73;;;4.10;;
19653;SDS011;9975;48.046;7.804;2023-04-05T03:27:00;6.07;;;4.20;;
19653;SDS011;9975;48.046;7.804;2023-04-05T03:29:30;6.20;;;3.97;;
19653;SDS011;9975;48.046;7.804;2023-04-05T03:31:56;10.40;;;3.80;;
19653;SDS011;9975;48.046;7.804;2023-04-05T03:34:23;4.10;;;3.70;;
19653;SDS011;9975;48.046;7.804;2023-04-05T03:36:53;6.90;;;4.38;;
19653;SDS011;9975;48.046;7.804;2023-04-05T03:39:19;6.03;;;4.15;;
19653;SDS011;9975;48.046;7.804;2023-04-05T03:41:45;6.47;;;4.20;;
19653;SDS011;9975;48.046;7.804;2023-04-05T03:44:11;5.00;;;4.17;;
19653;SDS011;9975;48.046;7.804;2023-04-05T03:46:36;4.03;;;3.63;;
19653;SDS011;9975;48.046;7.804;2023-04-05T03:49:02;3.83;;;3.47;;
19653;SDS011;9975;48.046;7.804;2023-04-05T03:51:31;8.60;;;4.85;;
19653;SDS011;9975;48.046;7.804;2023-04-05T03:53:57;7.50;;;4.05;;
19653;SDS011;9975;48.046;7.804;2023-04-05T03:56:23;9.90;;;4.80;;
19653;SDS011;9975;48.046;7.804;2023-04-05T03:58:51;8.80;;;4.28;;
19653;SDS011;9975;48.046;7.804;2023-04-05T04:01:16;8.25;;;4.40;;
19653;SDS011;9975;48.046;7.804;2023-04-05T04:03:42;7.67;;;4.20;;
19653;SDS011;9975;48.046;7.804;2023-04-05T04:06:08;5.70;;;4.00;;
19653;SDS011;9975;48.046;7.804;2023-04-05T04:08:34;4.50;;;4.03;;
19653;SDS011;9975;48.046;7.804;2023-04-05T04:10:59;4.30;;;3.70;;
19653;SDS011;9975;48.046;7.804;2023-04-05T04:13:25;6.70;;;4.03;;
19653;SDS011;9975;48.046;7.804;2023-04-05T04:15:51;5.60;;;3.97;;
19653;SDS011;9975;48.046;7.804;2023-04-05T04:18:16;7.00;;;4.63;;
19653;SDS011;9975;48.046;7.804;2023-04-05T04:20:42;11.00;;;4.73;;
19653;SDS011;9975;48.046;7.804;2023-04-05T04:23:07;7.63;;;4.57;;
19653;SDS011;9975;48.046;7.804;2023-04-05T04:25:34;7.00;;;3.88;;
19653;SDS011;9975;48.046;7.804;2023-04-05T04:28:01;7.20;;;4.43;;
19653;SDS011;9975;48.046;7.804;2023-04-05T04:30:28;7.35;;;4.25;;
19653;SDS011;9975;48.046;7.804;2023-04-05T04:32:54;10.80;;;4.70;;
19653;SDS011;9975;48.046;7.804;2023-04-05T04:35:23;5.50;;;3.70;;
19653;SDS011;9975;48.046;7.804;2023-04-05T04:37:58;5.93;;;3.97;;
19653;SDS011;9975;48.046;7.804;2023-04-05T04:40:29;5.82;;;4.07;;
19653;SDS011;9975;48.046;7.804;2023-04-05T04:43:02;5.15;;;4.00;;
19653;SDS011;9975;48.046;7.804;2023-04-05T04:45:38;5.80;;;4.60;;
19653;SDS011;9975;48.046;7.804;2023-04-05T04:48:04;12.48;;;4.35;;
19653;SDS011;9975;48.046;7.804;2023-04-05T04:50:32;4.75;;;3.53;;
19653;SDS011;9975;48.046;7.804;2023-04-05T04:52:58;6.77;;;4.57;;
19653;SDS011;9975;48.046;7.804;2023-04-05T04:55:24;5.43;;;4.30;;
19653;SDS011;9975;48.046;7.804;2023-04-05T04:57:52;6.85;;;4.90;;
19653;SDS011;9975;48.046;7.804;2023-04-05T05:00:18;8.95;;;5.40;;
19653;SDS011;9975;48.046;7.804;2023-04-05T05:02:45;10.95;;;5.80;;
19653;SDS011;9975;48.046;7.804;2023-04-05T05:05:11;6.70;;;4.95;;
19653;SDS011;9975;48.046;7.804;2023-04-05T05:07:38;8.98;;;6.32;;
19653;SDS011;9975;48.046;7.804;2023-04-05T05:10:08;8.60;;;6.18;;
19653;SDS011;9975;48.046;7.804;2023-04-05T05:12:35;9.70;;;6.40;;
19653;SDS011;9975;48.046;7.804;2023-04-05T05:15:02;9.95;;;5.80;;
19653;SDS011;9975;48.046;7.804;2023-04-05T05:17:28;7.97;;;5.87;;
19653;SDS011;9975;48.046;7.804;2023-04-05T05:19:53;6.27;;;5.60;;
19653;SDS011;9975;48.046;7.804;2023-04-05T05:22:19;8.60;;;6.20;;
19653;SDS011;9975;48.046;7.804;2023-04-05T05:24:46;8.05;;;6.05;;
19653;SDS011;9975;48.046;7.804;2023-04-05T05:27:12;14.93;;;6.87;;
19653;SDS011;9975;48.046;7.804;2023-04-05T05:29:37;7.60;;;5.90;;
19653;SDS011;9975;48.046;7.804;2023-04-05T05:32:03;25.60;;;11.50;;
19653;SDS011;9975;48.046;7.804;2023-04-05T05:34:29;12.13;;;8.30;;
19653;SDS011;9975;48.046;7.804;2023-04-05T05:36:54;9.83;;;6.20;;
19653;SDS011;9975;48.046;7.804;2023-04-05T05:39:21;8.48;;;6.43;;
19653;SDS011;9975;48.046;7.804;2023-04-05T05:41:47;8.13;;;6.43;;
19653;SDS011;9975;48.046;7.804;2023-04-05T05:44:13;8.70;;;6.30;;
19653;SDS011;9975;48.046;7.804;2023-04-05T05:46:38;10.90;;;5.57;;
19653;SDS011;9975;48.046;7.804;2023-04-05T05:49:04;8.52;;;6.30;;
19653;SDS011;9975;48.046;7.804;2023-04-05T05:51:30;9.97;;;6.83;;
19653;SDS011;9975;48.046;7.804;2023-04-05T05:53:56;10.93;;;6.93;;
19653;SDS011;9975;48.046;7.804;2023-04-05T05:56:22;9.27;;;6.70;;
19653;SDS011;9975;48.046;7.804;2023-04-05T05:58:47;10.43;;;5.80;;
19653;SDS011;9975;48.046;7.804;2023-04-05T06:01:13;8.27;;;5.77;;
19653;SDS011;9975;48.046;7.804;2023-04-05T06:03:38;12.50;;;6.43;;
19653;SDS011;9975;48.046;7.804;2023-04-05T06:06:04;10.10;;;5.50;;
19653;SDS011;9975;48.046;7.804;2023-04-05T06:08:35;10.55;;;6.47;;
19653;SDS011;9975;48.046;7.804;2023-04-05T06:11:00;10.37;;;6.87;;
19653;SDS011;9975;48.046;7.804;2023-04-05T06:13:26;8.05;;;6.40;;
19653;SDS011;9975;48.046;7.804;2023-04-05T06:15:52;10.60;;;7.10;;
19653;SDS011;9975;48.046;7.804;2023-04-05T06:18:18;7.00;;;6.23;;
19653;SDS011;9975;48.046;7.804;2023-04-05T06:20:44;13.00;;;7.38;;
19653;SDS011;9975;48.046;7.804;2023-04-05T06:23:10;7.00;;;5.43;;
19653;SDS011;9975;48.046;7.804;2023-04-05T06:25:36;11.07;;;7.30;;
19653;SDS011;9975;48.046;7.804;2023-04-05T06:28:02;8.37;;;5.40;;
19653;SDS011;9975;48.046;7.804;2023-04-05T06:30:29;14.65;;;7.95;;
19653;SDS011;9975;48.046;7.804;2023-04-05T06:32:55;14.65;;;6.53;;
19653;SDS011;9975;48.046;7.804;2023-04-05T06:35:21;7.47;;;5.80;;
19653;SDS011;9975;48.046;7.804;2023-04-05T06:37:48;10.05;;;6.10;;
19653;SDS011;9975;48.046;7.804;2023-04-05T06:40:14;10.73;;;6.00;;
19653;SDS011;9975;48.046;7.804;2023-04-05T06:42:40;6.53;;;5.05;;
19653;SDS011;9975;48.046;7.804;2023-04-05T06:45:06;8.70;;;5.60;;
19653;SDS011;9975;48.046;7.804;2023-04-05T06:47:41;9.25;;;5.50;;
19653;SDS011;9975;48.046;7.804;2023-04-05T06:50:07;15.05;;;7.50;;
19653;SDS011;9975;48.046;7.804;2023-04-05T06:52:33;23.20;;;9.07;;
19653;SDS011;9975;48.046;7.804;2023-04-05T06:55:01;25.23;;;10.53;;
19653;SDS011;9975;48.046;7.804;2023-04-05T06:57:26;18.50;;;8.43;;
19653;SDS011;9975;48.046;7.804;2023-04-05T06:59:52;12.07;;;6.47;;
19653;SDS011;9975;48.046;7.804;2023-04-05T07:02:19;8.32;;;5.72;;
19653;SDS011;9975;48.046;7.804;2023-04-05T07:04:45;10.50;;;5.95;;
19653;SDS011;9975;48.046;7.804;2023-04-05T07:07:12;7.53;;;5.30;;
19653;SDS011;9975;48.046;7.804;2023-04-05T07:09:38;7.03;;;5.25;;
19653;SDS011;9975;48.046;7.804;2023-04-05T07:12:05;10.07;;;5.00;;
19653;SDS011;9975;48.046;7.804;2023-04-05T07:14:32;9.52;;;5.20;;
19653;SDS011;9975;48.046;7.804;2023-04-05T07:16:59;4.53;;;4.13;;
19653;SDS011;9975;48.046;7.804;2023-04-05T07:19:25;6.57;;;5.20;;
19653;SDS011;9975;48.046;7.804;2023-04-05T07:21:51;8.80;;;4.97;;
19653;SDS011;9975;48.046;7.804;2023-04-05T07:24:17;6.70;;;5.47;;
19653;SDS011;9975;48.046;7.804;2023-04-05T07:26:43;10.90;;;5.87;;
19653;SDS011;9975;48.046;7.804;2023-04-05T07:29:09;9.02;;;5.25;;
19653;SDS011;9975;48.046;7.804;2023-04-05T07:31:37;10.05;;;5.80;;
19653;SDS011;9975;48.046;7.804;2023-04-05T07:34:03;11.07;;;5.70;;
19653;SDS011;9975;48.046;7.804;2023-04-05T07:36:29;9.57;;;4.70;;
19653;SDS011;9975;48.046;7.804;2023-04-05T07:38:58;12.43;;;5.65;;
19653;SDS011;9975;48.046;7.804;2023-04-05T07:41:28;11.75;;;4.95;;
19653;SDS011;9975;48.046;7.804;2023-04-05T07:44:15;6.35;;;4.95;;
19653;SDS011;9975;48.046;7.804;2023-04-05T07:46:40;8.80;;;5.00;;
19653;SDS011;9975;48.046;7.804;2023-04-05T07:49:08;6.60;;;4.97;;
19653;SDS011;9975;48.046;7.804;2023-04-05T07:51:35;5.75;;;4.93;;
19653;SDS011;9975;48.046;7.804;2023-04-05T07:54:02;9.25;;;5.20;;
19653;SDS011;9975;48.046;7.804;2023-04-05T07:56:29;8.45;;;5.00;;
19653;SDS011;9975;48.046;7.804;2023-04-05T07:58:55;6.32;;;4.78;;
19653;SDS011;9975;48.046;7.804;2023-04-05T08:01:21;7.00;;;5.20;;
19653;SDS011;9975;48.046;7.804;2023-04-05T08:03:51;10.30;;;5.60;;
19653;SDS011;9975;48.046;7.804;2023-04-05T08:06:21;6.95;;;5.18;;
19653;SDS011;9975;48.046;7.804;2023-04-05T08:08:48;8.90;;;5.80;;
19653;SDS011;9975;48.046;7.804;2023-04-05T08:11:14;5.22;;;4.55;;
19653;SDS011;9975;48.046;7.804;2023-04-05T08:13:40;9.40;;;6.03;;
19653;SDS011;9975;48.046;7.804;2023-04-05T08:16:07;6.10;;;5.50;;
19653;SDS011;9975;48.046;7.804;2023-04-05T08:18:33;7.90;;;5.40;;
19653;SDS011;9975;48.046;7.804;2023-04-05T08:20:59;11.00;;;5.80;;
19653;SDS011;9975;48.046;7.804;2023-04-05T08:23:25;6.93;;;4.80;;
19653;SDS011;9975;48.046;7.804;2023-04-05T08:25:51;7.43;;;4.70;;
19653;SDS011;9975;48.046;7.804;2023-04-05T08:28:17;5.57;;;5.00;;
19653;SDS011;9975;48.046;7.804;2023-04-05T08:30:43;7.47;;;5.43;;
19653;SDS011;9975;48.046;7.804;2023-04-05T08:33:10;5.10;;;4.00;;
19653;SDS011;9975;48.046;7.804;2023-04-05T08:35:36;6.10;;;4.83;;
19653;SDS011;9975;48.046;7.804;2023-04-05T08:38:03;5.53;;;4.00;;
19653;SDS011;9975;48.046;7.804;2023-04-05T08:43:07;6.10;;;4.00;;
19653;SDS011;9975;48.046;7.804;2023-04-05T08:45:43;7.70;;;4.40;;
19653;SDS011;9975;48.046;7.804;2023-04-05T08:48:13;6.77;;;4.50;;
19653;SDS011;9975;48.046;7.804;2023-04-05T08:50:38;6.60;;;4.80;;
19653;SDS011;9975;48.046;7.804;2023-04-05T08:53:05;8.17;;;5.87;;
19653;SDS011;9975;48.046;7.804;2023-04-05T08:55:34;9.60;;;5.40;;
19653;SDS011;9975;48.046;7.804;2023-04-05T08:58:01;5.27;;;4.23;;
19653;SDS011;9975;48.046;7.804;2023-04-05T09:00:31;7.87;;;5.47;;
19653;SDS011;9975;48.046;7.804;2023-04-05T09:02:57;6.90;;;4.60;;
19653;SDS011;9975;48.046;7.804;2023-04-05T09:05:26;4.67;;;3.93;;
19653;SDS011;9975;48.046;7.804;2023-04-05T09:07:56;5.23;;;4.57;;
19653;SDS011;9975;48.046;7.804;2023-04-05T09:10:22;6.27;;;4.13;;
19653;SDS011;9975;48.046;7.804;2023-04-05T09:12:50;7.87;;;4.77;;
19653;SDS011;9975;48.046;7.804;2023-04-05T09:15:17;7.47;;;3.80;;
19653;SDS011;9975;48.046;7.804;2023-04-05T09:17:45;5.00;;;3.50;;
19653;SDS011;9975;48.046;7.804;2023-04-05T09:20:12;4.13;;;3.40;;
19653;SDS011;9975;48.046;7.804;2023-04-05T09:22:41;3.87;;;3.47;;
19653;SDS011;9975;48.046;7.804;2023-04-05T09:25:09;5.90;;;3.80;;
19653;SDS011;9975;48.046;7.804;2023-04-05T09:27:35;4.70;;;3.80;;
19653;SDS011;9975;48.046;7.804;2023-04-05T09:30:20;5.13;;;4.10;;
19653;SDS011;9975;48.046;7.804;2023-04-05T09:32:47;6.93;;;4.30;;
19653;SDS011;9975;48.046;7.804;2023-04-05T09:35:26;5.13;;;4.60;;
19653;SDS011;9975;48.046;7.804;2023-04-05T09:37:54;7.30;;;4.30;;
19653;SDS011;9975;48.046;7.804;2023-04-05T09:40:20;5.70;;;4.53;;
19653;SDS011;9975;48.046;7.804;2023-04-05T09:42:47;6.80;;;4.53;;
19653;SDS011;9975;48.046;7.804;2023-04-05T09:45:13;6.47;;;4.40;;
19653;SDS011;9975;48.046;7.804;2023-04-05T09:47:40;5.57;;;5.00;;
19653;SDS011;9975;48.046;7.804;2023-04-05T09:52:41;5.57;;;4.43;;
19653;SDS011;9975;48.046;7.804;2023-04-05T09:55:08;4.53;;;4.10;;
19653;SDS011;9975;48.046;7.804;2023-04-05T09:57:40;4.50;;;3.53;;
19653;SDS011;9975;48.046;7.804;2023-04-05T10:00:29;6.23;;;4.43;;
19653;SDS011;9975;48.046;7.804;2023-04-05T10:02:58;4.97;;;4.47;;
19653;SDS011;9975;48.046;7.804;2023-04-05T10:05:24;4.03;;;3.47;;
19653;SDS011;9975;48.046;7.804;2023-04-05T10:07:51;4.10;;;3.70;;
19653;SDS011;9975;48.046;7.804;2023-04-05T10:10:19;4.67;;;4.20;;
19653;SDS011;9975;48.046;7.804;2023-04-05T10:12:46;6.40;;;4.23;;
19653;SDS011;9975;48.046;7.804;2023-04-05T10:15:13;6.93;;;4.50;;
19653;SDS011;9975;48.046;7.804;2023-04-05T10:20:32;6.33;;;3.53;;
19653;SDS011;9975;48.046;7.804;2023-04-05T10:23:08;5.70;;;4.93;;
19653;SDS011;9975;48.046;7.804;2023-04-05T10:34:15;4.83;;;3.80;;
19653;SDS011;9975;48.046;7.804;2023-04-05T10:37:25;5.77;;;4.33;;
19653;SDS011;9975;48.046;7.804;2023-04-05T10:40:00;4.70;;;4.30;;
19653;SDS011;9975;48.046;7.804;2023-04-05T10:42:33;5.53;;;5.03;;
19653;SDS011;9975;48.046;7.804;2023-04-05T10:45:05;6.67;;;3.87;;
19653;SDS011;9975;48.046;7.804;2023-04-05T10:47:36;4.47;;;4.03;;
19653;SDS011;9975;48.046;7.804;2023-04-05T10:50:07;5.57;;;3.97;;
19653;SDS011;9975;48.046;7.804;2023-04-05T10:52:36;5.80;;;4.23;;
19653;SDS011;9975;48.046;7.804;2023-04-05T10:55:04;5.70;;;4.87;;
19653;SDS011;9975;48.046;7.804;2023-04-05T10:57:32;4.80;;;4.30;;
19653;SDS011;9975;48.046;7.804;2023-04-05T10:59:58;6.43;;;5.80;;
19653;SDS011;9975;48.046;7.804;2023-04-05T11:02:27;5.00;;;4.20;;
19653;SDS011;9975;48.046;7.804;2023-04-05T11:04:53;4.50;;;4.10;;
19653;SDS011;9975;48.046;7.804;2023-04-05T11:07:20;4.70;;;3.73;;
19653;SDS011;9975;48.046;7.804;2023-04-05T11:09:58;6.40;;;4.13;;
19653;SDS011;9975;48.046;7.804;2023-04-05T11:23:31;5.33;;;4.47;;
19653;SDS011;9975;48.046;7.804;2023-04-05T11:26:17;5.47;;;4.53;;
19653;SDS011;9975;48.046;7.804;2023-04-05T11:28:42;8.50;;;4.30;;
19653;SDS011;9975;48.046;7.804;2023-04-05T11:31:12;4.07;;;3.70;;
19653;SDS011;9975;48.046;7.804;2023-04-05T11:36:08;5.27;;;4.43;;
19653;SDS011;9975;48.046;7.804;2023-04-05T11:38:34;8.23;;;4.17;;
19653;SDS011;9975;48.046;7.804;2023-04-05T11:41:11;4.43;;;3.67;;
19653;SDS011;9975;48.046;7.804;2023-04-05T11:43:45;6.00;;;4.23;;
19653;SDS011;9975;48.046;7.804;2023-04-05T11:46:12;8.53;;;5.70;;
19653;SDS011;9975;48.046;7.804;2023-04-05T11:48:39;5.13;;;4.03;;
19653;SDS011;9975;48.046;7.804;2023-04-05T11:51:06;5.30;;;4.50;;
19653;SDS011;9975;48.046;7.804;2023-04-05T11:53:34;4.60;;;3.73;;
19653;SDS011;9975;48.046;7.804;2023-04-05T11:56:10;4.50;;;4.10;;
19653;SDS011;9975;48.046;7.804;2023-04-05T11:58:39;6.00;;;4.40;;
19653;SDS011;9975;48.046;7.804;2023-04-05T12:01:06;6.37;;;4.90;;
19653;SDS011;9975;48.046;7.804;2023-04-05T12:03:33;4.67;;;4.20;;
19653;SDS011;9975;48.046;7.804;2023-04-05T12:06:00;7.10;;;4.27;;
19653;SDS011;9975;48.046;7.804;2023-04-05T12:08:40;5.50;;;4.03;;
19653;SDS011;9975;48.046;7.804;2023-04-05T12:11:13;4.07;;;3.77;;
19653;SDS011;9975;48.046;7.804;2023-04-05T12:13:39;4.33;;;3.93;;
19653;SDS011;9975;48.046;7.804;2023-04-05T12:16:05;6.13;;;4.13;;
19653;SDS011;9975;48.046;7.804;2023-04-05T12:18:34;5.33;;;3.83;;
19653;SDS011;9975;48.046;7.804;2023-04-05T12:21:01;6.40;;;4.20;;
19653;SDS011;9975;48.046;7.804;2023-04-05T12:23:28;4.80;;;4.30;;
19653;SDS011;9975;48.046;7.804;2023-04-05T12:25:54;4.93;;;4.37;;
19653;SDS011;9975;48.046;7.804;2023-04-05T12:28:23;6.37;;;4.07;;
19653;SDS011;9975;48.046;7.804;2023-04-05T12:30:50;4.73;;;4.33;;
19653;SDS011;9975;48.046;7.804;2023-04-05T12:33:30;6.37;;;4.20;;
19653;SDS011;9975;48.046;7.804;2023-04-05T12:36:04;4.37;;;3.83;;
19653;SDS011;9975;48.046;7.804;2023-04-05T12:38:31;5.30;;;4.80;;
19653;SDS011;9975;48.046;7.804;2023-04-05T12:41:03;4.43;;;4.00;;
19653;SDS011;9975;48.046;7.804;2023-04-05T12:43:38;5.00;;;3.90;;
19653;SDS011;9975;48.046;7.804;2023-04-05T12:46:08;7.00;;;4.30;;
19653;SDS011;9975;48.046;7.804;2023-04-05T12:48:40;6.00;;;4.07;;
19653;SDS011;9975;48.046;7.804;2023-04-05T12:51:13;7.00;;;3.53;;
19653;SDS011;9975;48.046;7.804;2023-04-05T12:53:44;7.47;;;4.40;;
19653;SDS011;9975;48.046;7.804;2023-04-05T12:56:11;4.10;;;3.73;;
19653;SDS011;9975;48.046;7.804;2023-04-05T12:58:38;5.30;;;4.50;;
19653;SDS011;9975;48.046;7.804;2023-04-05T13:01:04;4.77;;;4.07;;
19653;SDS011;9975;48.046;7.804;2023-04-05T13:03:32;4.50;;;4.10;;
19653;SDS011;9975;48.046;7.804;2023-04-05T13:05:57;4.80;;;4.20;;
19653;SDS011;9975;48.046;7.804;2023-04-05T13:08:23;4.40;;;4.00;;
19653;SDS011;9975;48.046;7.804;2023-04-05T13:10:51;5.43;;;4.60;;
19653;SDS011;9975;48.046;7.804;2023-04-05T13:13:16;3.97;;;3.57;;
19653;SDS011;9975;48.046;7.804;2023-04-05T13:15:44;4.50;;;3.87;;
19653;SDS011;9975;48.046;7.804;2023-04-05T13:18:10;4.80;;;3.50;;
19653;SDS011;9975;48.046;7.804;2023-04-05T13:20:38;3.77;;;3.47;;
19653;SDS011;9975;48.046;7.804;2023-04-05T13:23:06;4.90;;;3.57;;
19653;SDS011;9975;48.046;7.804;2023-04-05T13:25:35;8.50;;;4.70;;
19653;SDS011;9975;48.046;7.804;2023-04-05T13:28:05;4.83;;;3.77;;
19653;SDS011;9975;48.046;7.804;2023-04-05T13:30:31;3.77;;;3.37;;
19653;SDS011;9975;48.046;7.804;2023-04-05T13:32:57;8.50;;;4.00;;
19653;SDS011;9975;48.046;7.804;2023-04-05T13:35:28;4.67;;;4.27;;
19653;SDS011;9975;48.046;7.804;2023-04-05T13:37:54;4.63;;;3.73;;
19653;SDS011;9975;48.046;7.804;2023-04-05T13:40:19;4.43;;;4.03;;
19653;SDS011;9975;48.046;7.804;2023-04-05T13:42:45;4.40;;;4.00;;
19653;SDS011;9975;48.046;7.804;2023-04-05T13:45:11;4.90;;;4.50;;
19653;SDS011;9975;48.046;7.804;2023-04-05T13:47:37;5.43;;;4.10;;
19653;SDS011;9975;48.046;7.804;2023-04-05T13:50:03;5.60;;;5.00;;
19653;SDS011;9975;48.046;7.804;2023-04-05T13:52:29;4.67;;;3.60;;
19653;SDS011;9975;48.046;7.804;2023-04-05T13:54:54;4.93;;;4.27;;
19653;SDS011;9975;48.046;7.804;2023-04-05T13:57:20;6.53;;;4.53;;
19653;SDS011;9975;48.046;7.804;2023-04-05T13:59:45;5.10;;;3.00;;
19653;SDS011;9975;48.046;7.804;2023-04-05T14:02:12;6.60;;;4.13;;
19653;SDS011;9975;48.046;7.804;2023-04-05T14:04:39;5.73;;;4.17;;
19653;SDS011;9975;48.046;7.804;2023-04-05T14:07:07;6.27;;;5.20;;
19653;SDS011;9975;48.046;7.804;2023-04-05T14:09:33;4.37;;;3.97;;
19653;SDS011;9975;48.046;7.804;2023-04-05T14:12:00;5.53;;;4.90;;
19653;SDS011;9975;48.046;7.804;2023-04-05T14:14:27;6.80;;;4.50;;
19653;SDS011;9975;48.046;7.804;2023-04-05T14:16:54;6.73;;;5.03;;
19653;SDS011;9975;48.046;7.804;2023-04-05T14:19:20;4.37;;;3.67;;
19653;SDS011;9975;48.046;7.804;2023-04-05T14:21:46;6.27;;;4.77;;
19653;SDS011;9975;48.046;7.804;2023-04-05T14:24:14;4.40;;;4.00;;
19653;SDS011;9975;48.046;7.804;2023-04-05T14:26:39;5.03;;;4.00;;
19653;SDS011;9975;48.046;7.804;2023-04-05T14:29:05;4.00;;;3.70;;
19653;SDS011;9975;48.046;7.804;2023-04-05T14:31:31;4.63;;;3.80;;
19653;SDS011;9975;48.046;7.804;2023-04-05T14:33:56;6.20;;;3.83;;
19653;SDS011;9975;48.046;7.804;2023-04-05T14:36:22;8.03;;;4.03;;
19653;SDS011;9975;48.046;7.804;2023-04-05T14:38:47;4.70;;;3.83;;
19653;SDS011;9975;48.046;7.804;2023-04-05T14:41:13;5.70;;;3.43;;
19653;SDS011;9975;48.046;7.804;2023-04-05T14:43:39;4.50;;;3.83;;
19653;SDS011;9975;48.046;7.804;2023-04-05T14:46:05;4.90;;;3.63;;
19653;SDS011;9975;48.046;7.804;2023-04-05T14:48:31;7.63;;;4.47;;
19653;SDS011;9975;48.046;7.804;2023-04-05T14:51:10;4.40;;;3.90;;
19653;SDS011;9975;48.046;7.804;2023-04-05T14:53:37;4.30;;;3.90;;
19653;SDS011;9975;48.046;7.804;2023-04-05T14:56:02;3.80;;;3.40;;
19653;SDS011;9975;48.046;7.804;2023-04-05T14:58:28;5.23;;;3.70;;
19653;SDS011;9975;48.046;7.804;2023-04-05T15:00:54;3.73;;;3.10;;
19653;SDS011;9975;48.046;7.804;2023-04-05T15:03:21;5.87;;;3.73;;
19653;SDS011;9975;48.046;7.804;2023-04-05T15:05:47;6.17;;;3.37;;
19653;SDS011;9975;48.046;7.804;2023-04-05T15:08:13;7.00;;;3.60;;
19653;SDS011;9975;48.046;7.804;2023-04-05T15:10:39;4.20;;;3.80;;
19653;SDS011;9975;48.046;7.804;2023-04-05T15:13:06;5.10;;;4.20;;
19653;SDS011;9975;48.046;7.804;2023-04-05T15:15:32;3.93;;;3.50;;
19653;SDS011;9975;48.046;7.804;2023-04-05T15:17:58;4.20;;;3.50;;
19653;SDS011;9975;48.046;7.804;2023-04-05T15:20:24;5.10;;;3.73;;
19653;SDS011;9975;48.046;7.804;2023-04-05T15:22:50;3.80;;;3.37;;
19653;SDS011;9975;48.046;7.804;2023-04-05T15:25:22;4.50;;;3.70;;
19653;SDS011;9975;48.046;7.804;2023-04-05T15:28:39;5.00;;;4.50;;
19653;SDS011;9975;48.046;7.804;2023-04-05T15:31:05;4.90;;;4.40;;
19653;SDS011;9975;48.046;7.804;2023-04-05T15:33:30;4.07;;;3.70;;
19653;SDS011;9975;48.046;7.804;2023-04-05T15:35:56;4.67;;;3.00;;
19653;SDS011;9975;48.046;7.804;2023-04-05T15:38:21;4.80;;;3.50;;
19653;SDS011;9975;48.046;7.804;2023-04-05T15:40:47;5.83;;;3.87;;
19653;SDS011;9975;48.046;7.804;2023-04-05T15:43:19;3.97;;;3.50;;
19653;SDS011;9975;48.046;7.804;2023-04-05T15:45:46;4.90;;;2.77;;
19653;SDS011;9975;48.046;7.804;2023-04-05T15:48:12;3.50;;;3.20;;
19653;SDS011;9975;48.046;7.804;2023-04-05T15:50:38;3.60;;;3.13;;
19653;SDS011;9975;48.046;7.804;2023-04-05T15:53:05;3.50;;;3.20;;
19653;SDS011;9975;48.046;7.804;2023-04-05T15:55:31;5.47;;;3.10;;
19653;SDS011;9975;48.046;7.804;2023-04-05T15:57:56;4.03;;;3.57;;
19653;SDS011;9975;48.046;7.804;2023-04-05T16:00:22;3.23;;;2.80;;
19653;SDS011;9975;48.046;7.804;2023-04-05T16:02:48;2.63;;;2.43;;
19653;SDS011;9975;48.046;7.804;2023-04-05T16:05:15;3.77;;;2.97;;
19653;SDS011;9975;48.046;7.804;2023-04-05T16:07:40;2.80;;;2.60;;
19653;SDS011;9975;48.046;7.804;2023-04-05T16:10:06;3.10;;;2.80;;
19653;SDS011;9975;48.046;7.804;2023-04-05T16:12:32;2.63;;;2.40;;
19653;SDS011;9975;48.046;7.804;2023-04-05T16:14:58;2.70;;;2.43;;
19653;SDS011;9975;48.046;7.804;2023-04-05T16:17:24;4.10;;;2.70;;
19653;SDS011;9975;48.046;7.804;2023-04-05T16:19:51;3.30;;;2.63;;
19653;SDS011;9975;48.046;7.804;2023-04-05T16:22:17;2.93;;;2.37;;
19653;SDS011;9975;48.046;7.804;2023-04-05T16:24:43;3.00;;;2.40;;
19653;SDS011;9975;48.046;7.804;2023-04-05T16:27:08;3.37;;;2.07;;
19653;SDS011;9975;48.046;7.804;2023-04-05T16:29:34;2.70;;;2.20;;
19653;SDS011;9975;48.046;7.804;2023-04-05T16:31:59;2.10;;;1.90;;
19653;SDS011;9975;48.046;7.804;2023-04-05T16:34:25;5.90;;;2.83;;
19653;SDS011;9975;48.046;7.804;2023-04-05T16:36:51;2.37;;;2.10;;
19653;SDS011;9975;48.046;7.804;2023-04-05T16:39:16;2.50;;;2.00;;
19653;SDS011;9975;48.046;7.804;2023-04-05T16:41:42;2.30;;;2.07;;
19653;SDS011;9975;48.046;7.804;2023-04-05T16:44:08;2.40;;;2.20;;
19653;SDS011;9975;48.046;7.804;2023-04-05T16:46:34;3.40;;;2.50;;
19653;SDS011;9975;48.046;7.804;2023-04-05T16:49:01;4.97;;;3.00;;
19653;SDS011;9975;48.046;7.804;2023-04-05T16:51:27;2.87;;;2.30;;
19653;SDS011;9975;48.046;7.804;2023-04-05T16:53:53;2.20;;;1.87;;
19653;SDS011;9975;48.046;7.804;2023-04-05T16:56:19;8.00;;;2.30;;
19653;SDS011;9975;48.046;7.804;2023-04-05T16:58:44;2.50;;;2.30;;
19653;SDS011;9975;48.046;7.804;2023-04-05T17:01:10;5.47;;;2.83;;
19653;SDS011;9975;48.046;7.804;2023-04-05T17:03:36;3.80;;;2.73;;
19653;SDS011;9975;48.046;7.804;2023-04-05T17:06:01;4.33;;;2.60;;
19653;SDS011;9975;48.046;7.804;2023-04-05T17:08:27;5.80;;;2.13;;
19653;SDS011;9975;48.046;7.804;2023-04-05T17:10:53;4.23;;;2.57;;
19653;SDS011;9975;48.046;7.804;2023-04-05T17:13:18;2.33;;;2.20;;
19653;SDS011;9975;48.046;7.804;2023-04-05T17:15:46;3.37;;;2.90;;
19653;SDS011;9975;48.046;7.804;2023-04-05T17:18:13;2.63;;;2.30;;
19653;SDS011;9975;48.046;7.804;2023-04-05T17:20:38;2.63;;;2.37;;
19653;SDS011;9975;48.046;7.804;2023-04-05T17:23:04;4.40;;;3.10;;
19653;SDS011;9975;48.046;7.804;2023-04-05T17:25:30;4.20;;;2.97;;
19653;SDS011;9975;48.046;7.804;2023-04-05T17:27:56;4.93;;;3.10;;